PWSweather.com
Personal Weather Stations
Station Observations
MAKAWAOWX1
Up Country Maui, Makawao, HI 96768

Up Country MauiMakawao, HI 96768

Lat: 20.856944, Lon: -156.3149667

Elevation: 1500

Station Type: Davis Vantage Pro

Latest ConditionsUpdated 8:10:55 AM HST Thursday, Dec 18, 2014
Currently Today's Max Today's Min Today's Average
Temperature 68.0°F20.0°C 68.0°F20.0°C 65.6°F18.7°C 66.2°F19.0°C
Dew Point 63.3°F17.4°C 63.3°F17.4°C 60.5°F15.8°C 61.7°F16.5°C
Winds 8.1 mph E13.0 kmh E 12.9 mph E20.8 kmh E - 7.6 mph 12.2 kmh
Wind Gusts 11.0 mph17.7 kmh 19.0 mph30.6 kmh - -
Humidity 85% 91% 81% 85%
Pressure 30.08 in1018.6 mb 30.10 in1019.3 mb 30.05 in1017.6 mb -
Precipitation - 0.01 in0.3 mm - -
Hour Temp Dew Point Humidity Winds Wind Gusts Pressure Precip Precip Rate Daily Precip Total
08:10 AM 68.0°F20.0°C 63.3°F17.4°C 85% 8.1 mph E13.0 kmh E 11.0 mph17.7 kmh 30.08 in1018.6 mb 0.00 in0.0 mm 0.00 in/hr0.0 mm/hr 0.01 in0.3 mm
08:01 AM 67.7°F19.8°C 63.0°F17.2°C 85% 8.8 mph E14.2 kmh E 12.0 mph19.3 kmh 30.09 in1019.0 mb 0.00 in0.0 mm 0.00 in/hr0.0 mm/hr 0.01 in0.3 mm
07:50 AM 67.2°F19.6°C 62.5°F16.9°C 85% 6.8 mph E10.9 kmh E 11.0 mph17.7 kmh 30.09 in1019.0 mb 0.00 in0.0 mm 0.00 in/hr0.0 mm/hr 0.01 in0.3 mm
07:40 AM 66.8°F19.3°C 62.1°F16.7°C 85% 6.3 mph E10.1 kmh E 10.0 mph16.1 kmh 30.08 in1018.6 mb 0.00 in0.0 mm 0.00 in/hr0.0 mm/hr 0.01 in0.3 mm
07:31 AM 66.6°F19.2°C 61.9°F16.6°C 85% 7.5 mph E12.1 kmh E 9.0 mph14.5 kmh 30.07 in1018.3 mb 0.00 in0.0 mm 0.00 in/hr0.0 mm/hr 0.01 in0.3 mm
07:20 AM 66.4°F19.1°C 61.4°F16.3°C 84% 9.3 mph E15.0 kmh E 10.0 mph16.1 kmh 30.07 in1018.3 mb 0.00 in0.0 mm 0.00 in/hr0.0 mm/hr 0.01 in0.3 mm
07:10 AM 66.3°F19.1°C 61.3°F16.3°C 84% 5.4 mph E8.7 kmh E 5.0 mph8.0 kmh 30.07 in1018.3 mb 0.00 in0.0 mm 0.00 in/hr0.0 mm/hr 0.01 in0.3 mm
07:01 AM 66.3°F19.1°C 61.0°F16.1°C 83% 8.2 mph ENE13.2 kmh ENE 11.0 mph17.7 kmh 30.07 in1018.3 mb 0.00 in0.0 mm 0.00 in/hr0.0 mm/hr 0.01 in0.3 mm
06:50 AM 66.1°F18.9°C 60.8°F16.0°C 83% 6.8 mph E10.9 kmh E 12.0 mph19.3 kmh 30.07 in1018.3 mb 0.00 in0.0 mm 0.00 in/hr0.0 mm/hr 0.01 in0.3 mm
06:40 AM 66.0°F18.9°C 61.0°F16.1°C 84% 5.6 mph E9.0 kmh E 11.0 mph17.7 kmh 30.08 in1018.6 mb 0.00 in0.0 mm 0.00 in/hr0.0 mm/hr 0.01 in0.3 mm
06:31 AM 66.3°F19.1°C 61.0°F16.1°C 83% 7.5 mph ENE12.1 kmh ENE 13.0 mph20.9 kmh 30.07 in1018.3 mb 0.00 in0.0 mm 0.00 in/hr0.0 mm/hr 0.01 in0.3 mm
06:20 AM 66.6°F19.2°C 60.6°F15.9°C 81% 5.9 mph E9.5 kmh E 9.0 mph14.5 kmh 30.07 in1018.3 mb 0.00 in0.0 mm 0.00 in/hr0.0 mm/hr 0.01 in0.3 mm
06:10 AM 66.5°F19.2°C 60.5°F15.8°C 81% 6.9 mph E11.1 kmh E 11.0 mph17.7 kmh 30.07 in1018.3 mb 0.00 in0.0 mm 0.00 in/hr0.0 mm/hr 0.01 in0.3 mm
06:01 AM 66.5°F19.2°C 61.2°F16.2°C 83% 7.7 mph SE12.4 kmh SE 13.0 mph20.9 kmh 30.07 in1018.3 mb 0.00 in0.0 mm 0.00 in/hr0.0 mm/hr 0.01 in0.3 mm
05:50 AM 66.6°F19.2°C 61.3°F16.3°C 83% 4.8 mph E7.7 kmh E 7.0 mph11.3 kmh 30.06 in1017.9 mb 0.00 in0.0 mm 0.00 in/hr0.0 mm/hr 0.01 in0.3 mm
05:40 AM 66.2°F19.0°C 61.2°F16.2°C 84% 8.2 mph E13.2 kmh E 12.0 mph19.3 kmh 30.06 in1017.9 mb 0.00 in0.0 mm 0.00 in/hr0.0 mm/hr 0.01 in0.3 mm
05:31 AM 66.0°F18.9°C 61.7°F16.5°C 86% 9.3 mph E15.0 kmh E 11.0 mph17.7 kmh 30.06 in1017.9 mb 0.00 in0.0 mm 0.00 in/hr0.0 mm/hr 0.01 in0.3 mm
05:20 AM 65.7°F18.7°C 62.0°F16.7°C 88% 8.9 mph E14.3 kmh E 12.0 mph19.3 kmh 30.06 in1017.9 mb 0.00 in0.0 mm 0.00 in/hr0.0 mm/hr 0.01 in0.3 mm
05:10 AM 65.7°F18.7°C 61.7°F16.5°C 87% 8.2 mph ENE13.2 kmh ENE 15.0 mph24.1 kmh 30.05 in1017.6 mb 0.00 in0.0 mm 0.00 in/hr0.0 mm/hr 0.01 in0.3 mm
05:01 AM 65.8°F18.8°C 61.5°F16.4°C 86% 5.6 mph ENE9.0 kmh ENE 9.0 mph14.5 kmh 30.05 in1017.6 mb 0.00 in0.0 mm 0.00 in/hr0.0 mm/hr 0.01 in0.3 mm
04:50 AM 65.8°F18.8°C 61.1°F16.2°C 85% 7.2 mph ENE11.6 kmh ENE 12.0 mph19.3 kmh 30.05 in1017.6 mb 0.00 in0.0 mm 0.00 in/hr0.0 mm/hr 0.01 in0.3 mm
04:40 AM 66.0°F18.9°C 61.3°F16.3°C 85% 7.3 mph ENE11.7 kmh ENE 9.0 mph14.5 kmh 30.05 in1017.6 mb 0.00 in0.0 mm 0.00 in/hr0.0 mm/hr 0.01 in0.3 mm
04:31 AM 66.4°F19.1°C 60.7°F15.9°C 82% 7.7 mph ENE12.4 kmh ENE 10.0 mph16.1 kmh 30.06 in1017.9 mb 0.00 in0.0 mm 0.00 in/hr0.0 mm/hr 0.01 in0.3 mm
04:20 AM 66.4°F19.1°C 60.7°F15.9°C 82% 10.7 mph E17.2 kmh E 11.0 mph17.7 kmh 30.05 in1017.6 mb 0.00 in0.0 mm 0.00 in/hr0.0 mm/hr 0.01 in0.3 mm
04:10 AM 66.2°F19.0°C 60.6°F15.9°C 82% 10.2 mph E16.4 kmh E 15.0 mph24.1 kmh 30.05 in1017.6 mb 0.00 in0.0 mm 0.00 in/hr0.0 mm/hr 0.01 in0.3 mm
04:01 AM 65.9°F18.8°C 60.6°F15.9°C 83% 12.9 mph E20.8 kmh E 19.0 mph30.6 kmh 30.05 in1017.6 mb 0.00 in0.0 mm 0.00 in/hr0.0 mm/hr 0.01 in0.3 mm
03:50 AM 66.3°F19.1°C 61.0°F16.1°C 83% 5.0 mph ENE8.0 kmh ENE 8.0 mph12.9 kmh 30.05 in1017.6 mb 0.00 in0.0 mm 0.00 in/hr0.0 mm/hr 0.01 in0.3 mm
03:40 AM 66.3°F19.1°C 61.0°F16.1°C 83% 7.6 mph E12.2 kmh E 11.0 mph17.7 kmh 30.05 in1017.6 mb 0.00 in0.0 mm 0.00 in/hr0.0 mm/hr 0.01 in0.3 mm
03:31 AM 66.2°F19.0°C 60.9°F16.1°C 83% 5.5 mph SE8.9 kmh SE 8.0 mph12.9 kmh 30.06 in1017.9 mb 0.00 in0.0 mm 0.00 in/hr0.0 mm/hr 0.01 in0.3 mm
03:20 AM 66.2°F19.0°C 61.2°F16.2°C 84% 7.2 mph E11.6 kmh E 14.0 mph22.5 kmh 30.05 in1017.6 mb 0.00 in0.0 mm 0.00 in/hr0.0 mm/hr 0.01 in0.3 mm
03:10 AM 66.0°F18.9°C 61.0°F16.1°C 84% 6.6 mph E10.6 kmh E 13.0 mph20.9 kmh 30.05 in1017.6 mb 0.00 in0.0 mm 0.00 in/hr0.0 mm/hr 0.01 in0.3 mm
03:01 AM 66.0°F18.9°C 61.0°F16.1°C 84% 6.7 mph E10.8 kmh E 9.0 mph14.5 kmh 30.05 in1017.6 mb 0.00 in0.0 mm 0.00 in/hr0.0 mm/hr 0.01 in0.3 mm
02:50 AM 66.1°F18.9°C 61.5°F16.4°C 85% 8.5 mph E13.7 kmh E 15.0 mph24.1 kmh 30.05 in1017.6 mb 0.00 in0.0 mm 0.00 in/hr0.0 mm/hr 0.01 in0.3 mm
02:40 AM 66.0°F18.9°C 61.7°F16.5°C 86% 9.8 mph E15.8 kmh E 15.0 mph24.1 kmh 30.05 in1017.6 mb 0.00 in0.0 mm 0.00 in/hr0.0 mm/hr 0.01 in0.3 mm
02:31 AM 66.0°F18.9°C 62.0°F16.7°C 87% 8.0 mph E12.9 kmh E 15.0 mph24.1 kmh 30.06 in1017.9 mb 0.00 in0.0 mm 0.00 in/hr0.0 mm/hr 0.01 in0.3 mm
02:20 AM 66.2°F19.0°C 61.9°F16.6°C 86% 9.5 mph ENE15.3 kmh ENE 14.0 mph22.5 kmh 30.06 in1017.9 mb 0.00 in0.0 mm 0.00 in/hr0.0 mm/hr 0.01 in0.3 mm
02:10 AM 66.2°F19.0°C 61.9°F16.6°C 86% 8.3 mph NE13.4 kmh NE 14.0 mph22.5 kmh 30.07 in1018.3 mb 0.00 in0.0 mm 0.00 in/hr0.0 mm/hr 0.01 in0.3 mm
02:01 AM 65.9°F18.8°C 61.9°F16.6°C 87% 7.1 mph E11.4 kmh E 14.0 mph22.5 kmh 30.07 in1018.3 mb 0.00 in0.0 mm 0.00 in/hr0.0 mm/hr 0.01 in0.3 mm
01:50 AM 65.7°F18.7°C 62.4°F16.9°C 89% 7.6 mph E12.2 kmh E 16.0 mph25.7 kmh 30.08 in1018.6 mb 0.00 in0.0 mm 0.00 in/hr0.0 mm/hr 0.01 in0.3 mm
01:40 AM 65.7°F18.7°C 62.7°F17.1°C 90% 7.3 mph E11.7 kmh E 9.0 mph14.5 kmh 30.09 in1019.0 mb 0.00 in0.0 mm 0.00 in/hr0.0 mm/hr 0.01 in0.3 mm
01:31 AM 65.6°F18.7°C 62.6°F17.0°C 90% 7.6 mph E12.2 kmh E 13.0 mph20.9 kmh 30.09 in1019.0 mb 0.00 in0.0 mm 0.00 in/hr0.0 mm/hr 0.01 in0.3 mm
01:20 AM 65.7°F18.7°C 63.0°F17.2°C 91% 5.9 mph E9.5 kmh E 11.0 mph17.7 kmh 30.10 in1019.3 mb 0.00 in0.0 mm 0.00 in/hr0.0 mm/hr 0.01 in0.3 mm
01:10 AM 65.7°F18.7°C 63.0°F17.2°C 91% 5.1 mph ENE8.2 kmh ENE 7.0 mph11.3 kmh 30.09 in1019.0 mb 0.01 in0.3 mm 0.07 in/hr1.8 mm/hr 0.01 in0.3 mm
01:01 AM 65.7°F18.7°C 62.7°F17.1°C 90% 7.1 mph ENE11.4 kmh ENE 12.0 mph19.3 kmh 30.09 in1019.0 mb 0.00 in0.0 mm 0.00 in/hr0.0 mm/hr 0.00 in0.0 mm
12:50 AM 66.0°F18.9°C 62.6°F17.0°C 89% 6.5 mph ENE10.5 kmh ENE 12.0 mph19.3 kmh 30.09 in1019.0 mb 0.00 in0.0 mm 0.00 in/hr0.0 mm/hr 0.00 in0.0 mm
12:40 AM 66.4°F19.1°C 62.4°F16.9°C 87% 8.8 mph E14.2 kmh E 11.0 mph17.7 kmh 30.09 in1019.0 mb 0.00 in0.0 mm 0.00 in/hr0.0 mm/hr 0.00 in0.0 mm
12:31 AM 66.1°F18.9°C 62.1°F16.7°C 87% 9.1 mph E14.6 kmh E 13.0 mph20.9 kmh 30.10 in1019.3 mb 0.00 in0.0 mm 0.00 in/hr0.0 mm/hr 0.00 in0.0 mm
12:20 AM 66.0°F18.9°C 62.7°F17.1°C 89% 9.2 mph ENE14.8 kmh ENE 13.0 mph20.9 kmh 30.09 in1019.0 mb 0.00 in0.0 mm 0.00 in/hr0.0 mm/hr 0.00 in0.0 mm
12:10 AM 66.0°F18.9°C 62.7°F17.1°C 89% 7.2 mph E11.6 kmh E 14.0 mph22.5 kmh 30.09 in1019.0 mb 0.00 in0.0 mm 0.00 in/hr0.0 mm/hr 0.00 in0.0 mm
12:01 AM 65.9°F18.8°C 62.2°F16.8°C 88% 7.1 mph E11.4 kmh E 14.0 mph22.5 kmh 30.09 in1019.0 mb 0.00 in0.0 mm 0.00 in/hr0.0 mm/hr 0.00 in0.0 mm